Time;durP1;ratioP1;P1;durP2;ratioP2;P2;SDS_P1;SDS_P2;PMS_P1;PMS_P2;Temp;Humidity;BMP_temperature;BMP_pressure;BME280_temperature;BME280_humidity;BME280_pressure;Samples;Min_cycle;Max_cycle;Signal;HPM_P1;HPM_P2
2021/01/13 00:02:23;;;;;;;22.37;9.00;;;3.70;99.90;;;;;;5047845;28;20184;-91
2021/01/13 00:04:49;;;;;;;26.87;9.87;;;3.70;99.90;;;;;;5015511;28;20216;-92
2021/01/13 00:07:15;;;;;;;23.60;9.27;;;3.70;99.90;;;;;;5020630;28;20184;-92
2021/01/13 00:09:41;;;;;;;21.23;9.40;;;3.70;99.90;;;;;;5033648;28;20169;-92
2021/01/13 00:12:07;;;;;;;20.90;8.77;;;3.70;99.90;;;;;;5017285;28;20192;-92
2021/01/13 00:14:33;;;;;;;22.17;9.23;;;3.70;99.90;;;;;;5014241;28;20193;-92
2021/01/13 00:16:59;;;;;;;17.90;8.67;;;3.70;99.90;;;;;;5015630;28;20185;-91
2021/01/13 00:19:24;;;;;;;27.60;8.87;;;3.70;99.90;;;;;;5018109;28;20271;-90
2021/01/13 00:21:51;;;;;;;17.60;8.63;;;3.70;99.90;;;;;;5031273;28;20184;-92
2021/01/13 00:24:17;;;;;;;25.17;9.30;;;3.70;99.90;;;;;;5027529;28;20213;-92
2021/01/13 00:26:43;;;;;;;24.90;9.70;;;3.70;99.90;;;;;;5017858;28;20817;-92
2021/01/13 00:29:14;;;;;;;22.13;8.37;;;3.60;99.90;;;;;;5032621;28;20219;-91
2021/01/13 00:31:40;;;;;;;20.40;8.63;;;3.60;99.90;;;;;;5039467;28;20219;-92
2021/01/13 00:34:10;;;;;;;23.43;8.63;;;3.70;99.90;;;;;;5034597;28;20186;-91
2021/01/13 00:36:35;;;;;;;27.47;8.53;;;3.70;99.90;;;;;;5049931;28;20670;-91
2021/01/13 00:39:03;;;;;;;25.83;8.73;;;3.70;99.90;;;;;;5018768;28;20328;-90
2021/01/13 00:41:28;;;;;;;20.37;8.57;;;3.70;99.90;;;;;;5048051;28;20225;-91
2021/01/13 00:43:55;;;;;;;20.00;8.10;;;3.70;99.90;;;;;;5020176;28;20204;-90
2021/01/13 00:46:21;;;;;;;19.63;8.83;;;3.70;99.90;;;;;;5018557;28;20546;-91
2021/01/13 00:48:47;;;;;;;25.33;8.63;;;3.80;99.90;;;;;;5016239;28;20178;-92
2021/01/13 00:51:13;;;;;;;22.17;8.30;;;3.80;99.90;;;;;;5037958;28;20670;-91
2021/01/13 00:53:39;;;;;;;24.87;8.73;;;3.70;99.90;;;;;;5037971;28;20188;-91
2021/01/13 00:56:05;;;;;;;19.83;8.60;;;3.70;99.90;;;;;;5035847;28;20235;-91
2021/01/13 00:58:31;;;;;;;18.73;9.00;;;3.70;99.90;;;;;;5020747;28;20220;-91
2021/01/13 01:00:58;;;;;;;18.47;8.93;;;3.70;99.90;;;;;;5051146;28;20209;-92
2021/01/13 01:03:23;;;;;;;22.50;8.53;;;3.70;99.90;;;;;;5017985;28;20196;-91
2021/01/13 01:05:50;;;;;;;23.20;9.27;;;3.70;99.90;;;;;;5017544;28;20216;-91
2021/01/13 01:08:17;;;;;;;20.73;8.40;;;3.70;99.90;;;;;;5018408;28;20193;-91
2021/01/13 01:10:43;;;;;;;22.60;8.83;;;3.60;99.90;;;;;;5036045;28;21034;-92
2021/01/13 01:13:09;;;;;;;21.20;8.47;;;3.60;99.90;;;;;;5018568;28;20185;-91
2021/01/13 01:15:35;;;;;;;22.17;8.63;;;3.60;99.90;;;;;;5020566;28;20189;-91
2021/01/13 01:18:03;;;;;;;21.60;8.40;;;3.60;99.90;;;;;;5016592;28;20215;-91
2021/01/13 01:20:28;;;;;;;20.00;8.10;;;3.60;99.90;;;;;;5019012;28;20209;-92
2021/01/13 01:22:57;;;;;;;21.73;8.10;;;3.50;99.90;;;;;;5029387;28;20656;-92
2021/01/13 01:25:25;;;;;;;18.43;7.90;;;3.50;99.90;;;;;;5016176;28;20755;-92
2021/01/13 01:27:53;;;;;;;21.57;7.90;;;3.50;99.90;;;;;;5021990;28;20184;-91
2021/01/13 01:30:20;;;;;;;29.23;8.37;;;3.50;99.90;;;;;;5017720;28;20288;-92
2021/01/13 01:32:46;;;;;;;24.90;9.17;;;3.50;99.90;;;;;;5020326;28;20185;-91
2021/01/13 01:35:12;;;;;;;23.07;8.97;;;3.50;99.90;;;;;;5051781;28;20190;-90
2021/01/13 01:37:39;;;;;;;23.83;9.37;;;3.50;99.90;;;;;;5021054;28;20616;-90
2021/01/13 01:40:08;;;;;;;23.77;9.77;;;3.60;99.90;;;;;;5035987;28;20188;-90
2021/01/13 01:42:34;;;;;;;22.37;8.93;;;3.70;99.90;;;;;;5036502;28;20189;-91
2021/01/13 01:45:00;;;;;;;25.47;9.53;;;3.80;99.90;;;;;;5019608;28;20202;-91
2021/01/13 01:47:55;;;;;;;23.77;8.90;;;3.70;99.90;;;;;;5019382;28;20178;-89
2021/01/13 01:50:22;;;;;;;21.87;9.30;;;3.80;99.90;;;;;;5033765;28;20284;-91
2021/01/13 01:52:54;;;;;;;17.97;8.87;;;3.80;99.90;;;;;;5019925;28;20599;-90
2021/01/13 01:55:28;;;;;;;23.43;8.77;;;3.70;99.90;;;;;;5018293;28;20200;-90
2021/01/13 01:57:58;;;;;;;27.63;9.30;;;3.70;99.90;;;;;;5033968;28;20186;-91
2021/01/13 02:00:30;;;;;;;19.23;9.27;;;3.70;99.90;;;;;;5020414;28;20200;-90
2021/01/13 02:03:13;;;;;;;24.57;8.60;;;3.70;99.90;;;;;;5032617;28;20241;-90
2021/01/13 02:05:41;;;;;;;20.77;8.60;;;3.70;99.90;;;;;;5033525;28;20575;-91
2021/01/13 02:08:19;;;;;;;23.50;8.70;;;3.70;99.90;;;;;;5032043;28;20178;-90
2021/01/13 02:10:50;;;;;;;28.10;9.47;;;3.60;99.90;;;;;;5018603;28;20188;-90
2021/01/13 02:13:19;;;;;;;19.97;9.00;;;3.60;99.90;;;;;;5032689;28;20185;-91
2021/01/13 02:15:46;;;;;;;26.87;9.20;;;3.70;99.90;;;;;;5018827;28;20655;-91
2021/01/13 02:18:17;;;;;;;25.40;9.30;;;3.70;99.90;;;;;;5034116;28;20173;-92
2021/01/13 02:20:51;;;;;;;24.53;10.13;;;3.60;99.90;;;;;;5015761;28;20204;-90
2021/01/13 02:23:32;;;;;;;25.85;12.68;;;3.60;99.90;;;;;;5014358;28;20449;-91
2021/01/13 02:26:35;;;;;;;19.47;10.27;;;3.50;99.90;;;;;;5017356;28;20212;-92
2021/01/13 02:29:09;;;;;;;21.80;9.37;;;3.60;99.90;;;;;;5032369;28;20741;-91
2021/01/13 02:31:57;;;;;;;24.97;9.73;;;3.60;99.90;;;;;;5042664;28;20185;-91
2021/01/13 02:34:34;;;;;;;22.90;9.33;;;3.60;99.90;;;;;;5015943;28;20284;-91
2021/01/13 02:37:34;;;;;;;24.83;9.47;;;3.60;99.90;;;;;;5015039;28;20683;-91
2021/01/13 02:40:08;;;;;;;20.23;9.00;;;3.50;99.90;;;;;;5017632;28;20543;-91
2021/01/13 02:42:37;;;;;;;25.83;10.50;;;3.50;99.90;;;;;;5036598;28;20176;-91
2021/01/13 02:45:10;;;;;;;23.03;8.63;;;3.50;99.90;;;;;;5015602;28;20582;-90
2021/01/13 02:48:04;;;;;;;23.50;9.43;;;3.60;99.90;;;;;;5048665;28;20181;-90
2021/01/13 02:50:33;;;;;;;20.87;9.10;;;3.60;99.90;;;;;;5018691;28;20194;-91
2021/01/13 02:53:31;;;;;;;27.67;9.60;;;3.60;99.90;;;;;;5031849;28;20183;-91
2021/01/13 02:55:57;;;;;;;22.17;9.80;;;3.50;99.90;;;;;;5029405;28;20186;-91
2021/01/13 02:58:37;;;;;;;17.93;8.63;;;3.60;99.90;;;;;;5016143;28;20186;-91
2021/01/13 03:01:07;;;;;;;24.43;9.13;;;3.50;99.90;;;;;;5016309;28;20183;-91
2021/01/13 03:03:34;;;;;;;19.43;8.97;;;3.40;99.90;;;;;;5014011;28;20273;-90
2021/01/13 03:06:04;;;;;;;23.80;9.53;;;3.40;99.90;;;;;;5031999;28;20232;-91
2021/01/13 03:08:56;;;;;;;23.93;9.23;;;3.50;99.90;;;;;;5031747;28;20232;-90
2021/01/13 03:11:22;;;;;;;24.40;9.70;;;3.60;99.90;;;;;;5035369;28;20186;-90
2021/01/13 03:13:48;;;;;;;22.30;9.33;;;3.60;99.90;;;;;;5018611;28;20188;-91
2021/01/13 03:16:16;;;;;;;24.83;9.77;;;3.60;99.90;;;;;;5038005;28;20277;-90
2021/01/13 03:19:03;;;;;;;26.80;9.27;;;3.70;99.90;;;;;;5032976;28;20181;-91
2021/01/13 03:22:03;;;;;;;20.33;8.43;;;3.50;99.90;;;;;;5021244;28;20665;-91
2021/01/13 03:24:45;;;;;;;21.60;9.53;;;3.50;99.90;;;;;;5017902;28;20221;-90
2021/01/13 03:27:15;;;;;;;22.27;9.00;;;3.50;99.90;;;;;;5049117;28;20208;-91
2021/01/13 03:29:45;;;;;;;21.80;9.50;;;3.50;99.90;;;;;;5015770;28;20640;-91
2021/01/13 03:32:19;;;;;;;27.53;10.20;;;3.50;99.90;;;;;;5031153;28;20184;-91
2021/01/13 03:35:05;;;;;;;23.30;9.30;;;3.50;99.90;;;;;;5015751;28;20185;-91
2021/01/13 03:37:46;;;;;;;23.47;9.40;;;3.60;99.90;;;;;;5014519;28;20996;-91
2021/01/13 03:40:15;;;;;;;27.10;10.03;;;3.70;99.90;;;;;;5047900;28;20268;-91
2021/01/13 03:42:49;;;;;;;24.97;9.67;;;3.70;99.90;;;;;;5030344;28;20195;-91
2021/01/13 03:45:43;;;;;;;24.10;9.50;;;3.70;99.90;;;;;;5017349;28;20209;-91
2021/01/13 03:48:11;;;;;;;22.07;9.80;;;3.70;99.90;;;;;;5016322;28;20192;-91
2021/01/13 03:50:46;;;;;;;20.57;9.27;;;3.80;99.90;;;;;;5020322;28;20255;-91
2021/01/13 03:53:16;;;;;;;25.00;9.33;;;3.70;99.90;;;;;;5016186;28;20216;-90
2021/01/13 03:55:43;;;;;;;24.40;9.33;;;3.70;99.90;;;;;;5031806;28;20209;-91
2021/01/13 03:58:08;;;;;;;19.43;9.20;;;3.70;99.90;;;;;;5046617;28;20226;-91
2021/01/13 04:01:02;;;;;;;26.57;9.50;;;3.80;99.90;;;;;;5030903;28;20661;-92
2021/01/13 04:03:41;;;;;;;24.13;9.03;;;3.80;99.90;;;;;;5040600;28;20626;-91
2021/01/13 04:06:08;;;;;;;27.73;10.50;;;3.80;99.90;;;;;;5015850;28;20726;-91
2021/01/13 04:08:42;;;;;;;22.57;9.47;;;3.90;99.90;;;;;;5030337;28;20650;-91
2021/01/13 04:11:12;;;;;;;23.27;9.83;;;3.90;99.90;;;;;;5031800;28;20758;-91
2021/01/13 04:13:39;;;;;;;25.53;9.77;;;3.90;99.90;;;;;;5028955;28;20188;-90
2021/01/13 04:16:06;;;;;;;25.93;10.07;;;3.90;99.90;;;;;;5016605;28;20215;-91
2021/01/13 04:18:32;;;;;;;22.13;9.57;;;3.90;99.90;;;;;;5015020;28;20186;-92
2021/01/13 04:20:59;;;;;;;22.20;9.43;;;3.90;99.90;;;;;;5016454;28;20185;-91
2021/01/13 04:23:24;;;;;;;16.73;9.27;;;3.90;99.90;;;;;;5031273;28;20176;-92
2021/01/13 04:25:51;;;;;;;25.67;9.90;;;4.00;99.90;;;;;;5013121;28;20200;-91
2021/01/13 04:28:17;;;;;;;20.80;10.17;;;4.00;99.90;;;;;;5016952;28;20177;-91
2021/01/13 04:30:43;;;;;;;22.90;10.30;;;3.90;99.90;;;;;;5015393;28;20180;-91
2021/01/13 04:33:09;;;;;;;23.10;10.57;;;4.00;99.90;;;;;;5031474;28;20195;-91
2021/01/13 04:35:36;;;;;;;23.20;9.83;;;4.00;99.90;;;;;;5015086;28;20248;-91
2021/01/13 04:38:03;;;;;;;27.63;10.37;;;3.90;99.90;;;;;;5012943;28;20587;-91
2021/01/13 04:40:32;;;;;;;27.57;11.30;;;3.90;99.90;;;;;;5016347;28;20668;-90
2021/01/13 04:43:09;;;;;;;22.57;10.27;;;4.00;99.90;;;;;;5010409;28;20201;-91
2021/01/13 04:45:43;;;;;;;24.97;11.00;;;4.00;99.90;;;;;;5030679;28;20202;-90
2021/01/13 04:48:19;;;;;;;26.63;11.00;;;4.00;99.90;;;;;;5030777;28;20171;-90
2021/01/13 04:50:51;;;;;;;22.07;10.50;;;4.10;99.90;;;;;;5027439;28;20214;-90
2021/01/13 04:53:23;;;;;;;23.73;10.53;;;4.10;99.90;;;;;;5051689;28;20172;-90
2021/01/13 04:55:56;;;;;;;21.93;10.57;;;4.10;99.90;;;;;;5014228;28;20201;-91
2021/01/13 04:58:43;;;;;;;26.13;10.67;;;4.10;99.90;;;;;;5046325;28;20186;-90
2021/01/13 05:01:46;;;;;;;29.17;10.93;;;3.90;99.90;;;;;;5047081;28;20212;-92
2021/01/13 05:04:53;;;;;;;28.33;11.67;;;4.00;99.90;;;;;;5032433;28;20195;-90
2021/01/13 05:07:29;;;;;;;29.30;11.37;;;4.00;99.90;;;;;;5028978;28;20196;-90
2021/01/13 05:10:01;;;;;;;26.90;10.80;;;3.90;99.90;;;;;;5029567;28;20203;-91
2021/01/13 05:12:47;;;;;;;26.50;11.83;;;4.00;99.90;;;;;;5016597;28;20176;-90
2021/01/13 05:15:20;;;;;;;26.80;11.73;;;4.00;99.90;;;;;;5034857;28;20185;-92
2021/01/13 05:18:06;;;;;;;28.67;12.07;;;3.90;99.90;;;;;;5051099;28;20189;-91
2021/01/13 05:20:42;;;;;;;28.67;11.43;;;3.90;99.90;;;;;;5032483;28;20636;-91
2021/01/13 05:23:10;;;;;;;24.53;11.50;;;3.90;99.90;;;;;;5017944;28;20184;-91
2021/01/13 05:25:44;;;;;;;26.00;11.27;;;4.00;99.90;;;;;;5031543;28;20226;-90
2021/01/13 05:28:14;;;;;;;25.53;12.03;;;4.10;99.90;;;;;;5043781;28;20185;-90
2021/01/13 05:30:41;;;;;;;31.03;12.17;;;4.10;99.90;;;;;;5013519;28;20203;-91
2021/01/13 05:33:13;;;;;;;25.53;11.70;;;4.10;99.90;;;;;;5017637;28;20225;-91
2021/01/13 05:35:44;;;;;;;26.03;12.17;;;4.10;99.90;;;;;;5038578;28;20255;-90
2021/01/13 05:38:25;;;;;;;24.87;11.73;;;4.10;99.90;;;;;;5050738;28;20228;-89
2021/01/13 05:40:54;;;;;;;28.27;12.37;;;4.10;99.90;;;;;;5015467;28;20193;-91
2021/01/13 05:43:21;;;;;;;24.23;11.97;;;4.10;99.90;;;;;;5033647;28;20197;-91
2021/01/13 05:45:50;;;;;;;25.23;11.77;;;4.10;99.90;;;;;;5030970;28;20225;-91
2021/01/13 05:48:24;;;;;;;27.70;11.37;;;4.10;99.90;;;;;;5015695;28;20211;-90
2021/01/13 05:50:55;;;;;;;24.07;11.73;;;4.00;99.90;;;;;;5048773;28;20243;-91
2021/01/13 05:53:26;;;;;;;30.40;12.43;;;4.10;99.90;;;;;;5031182;28;20204;-91
2021/01/13 05:55:52;;;;;;;31.33;12.13;;;4.10;99.90;;;;;;5013181;28;20204;-91
2021/01/13 05:58:26;;;;;;;25.50;11.67;;;4.20;99.90;;;;;;5021035;28;20199;-90
2021/01/13 06:00:54;;;;;;;26.50;11.80;;;4.20;99.90;;;;;;5050400;28;20200;-91
2021/01/13 06:03:26;;;;;;;25.67;11.93;;;4.20;99.90;;;;;;5029763;28;20256;-90
2021/01/13 06:05:55;;;;;;;28.70;12.50;;;4.30;99.90;;;;;;5027290;28;20212;-91
2021/01/13 06:08:25;;;;;;;26.27;11.77;;;4.20;99.90;;;;;;5016241;28;20181;-90
2021/01/13 06:10:55;;;;;;;29.83;11.87;;;4.30;99.90;;;;;;5036276;28;20667;-91
2021/01/13 06:13:31;;;;;;;27.87;12.23;;;4.30;99.90;;;;;;5035989;28;20363;-91
2021/01/13 06:16:05;;;;;;;26.17;12.07;;;4.30;99.90;;;;;;5052300;28;20194;-91
2021/01/13 06:18:33;;;;;;;27.27;12.33;;;4.30;99.90;;;;;;5035732;28;20653;-90
2021/01/13 06:21:07;;;;;;;33.97;12.77;;;4.30;99.90;;;;;;5021415;28;20180;-91
2021/01/13 06:23:42;;;;;;;33.93;12.13;;;4.40;99.90;;;;;;5047039;28;20227;-92
2021/01/13 06:26:08;;;;;;;29.70;13.13;;;4.40;99.90;;;;;;5015792;28;20716;-91
2021/01/13 06:29:00;;;;;;;32.73;12.17;;;4.50;99.90;;;;;;5019435;28;20193;-92
2021/01/13 06:31:28;;;;;;;27.50;11.70;;;4.40;99.90;;;;;;5037177;28;20185;-92
2021/01/13 06:34:05;;;;;;;33.47;11.73;;;4.40;99.90;;;;;;5017730;28;20177;-91
2021/01/13 06:36:36;;;;;;;35.10;12.57;;;4.50;99.90;;;;;;5029128;28;20639;-92
2021/01/13 06:39:05;;;;;;;31.53;12.60;;;4.50;99.90;;;;;;5033925;28;20220;-91
2021/01/13 06:41:44;;;;;;;29.90;11.70;;;4.50;99.90;;;;;;5030083;28;20181;-92
2021/01/13 06:44:10;;;;;;;25.60;11.37;;;4.50;99.90;;;;;;5053068;28;20268;-93
2021/01/13 06:46:35;;;;;;;27.03;11.47;;;4.60;99.90;;;;;;5024344;28;20208;-94
2021/01/13 06:49:12;;;;;;;34.20;12.33;;;4.60;99.90;;;;;;5034858;28;20689;-92
2021/01/13 06:51:42;;;;;;;24.87;11.10;;;4.50;99.90;;;;;;5031234;28;20216;-93
2021/01/13 06:54:09;;;;;;;28.00;11.83;;;4.70;99.90;;;;;;5037826;28;20288;-93
2021/01/13 06:56:45;;;;;;;26.67;11.30;;;4.70;99.90;;;;;;5019994;28;20179;-93
2021/01/13 06:59:11;;;;;;;27.10;11.17;;;4.70;99.90;;;;;;5035355;28;20208;-94
2021/01/13 07:01:51;;;;;;;26.53;10.53;;;4.70;99.90;;;;;;5020670;28;20707;-94
2021/01/13 07:04:17;;;;;;;24.43;11.27;;;4.70;99.90;;;;;;5016820;28;20189;-93
2021/01/13 07:07:05;;;;;;;28.17;11.53;;;4.70;99.90;;;;;;5013969;28;20196;-93
2021/01/13 07:09:39;;;;;;;26.80;11.03;;;4.80;99.90;;;;;;5012399;28;20225;-94
2021/01/13 07:12:34;;;;;;;30.10;12.43;;;4.70;99.90;;;;;;5018580;28;20188;-94
2021/01/13 07:15:05;;;;;;;33.63;12.73;;;4.70;99.90;;;;;;5000737;28;20197;-93
2021/01/13 07:17:33;;;;;;;28.93;12.03;;;4.80;99.90;;;;;;5029978;28;20252;-93
2021/01/13 07:20:02;;;;;;;32.77;13.27;;;4.70;99.90;;;;;;5018306;28;20241;-93
2021/01/13 07:22:28;;;;;;;30.87;13.10;;;4.50;99.90;;;;;;5031227;28;20208;-94
2021/01/13 07:24:55;;;;;;;29.07;12.90;;;4.40;99.90;;;;;;5017723;28;20200;-93
2021/01/13 07:27:21;;;;;;;31.57;13.33;;;4.40;99.90;;;;;;5018791;28;20173;-93
2021/01/13 07:29:50;;;;;;;33.90;14.37;;;4.40;99.90;;;;;;5016128;28;20552;-93
2021/01/13 07:32:24;;;;;;;34.53;14.07;;;4.40;99.90;;;;;;5016140;28;20566;-94
2021/01/13 07:34:54;;;;;;;31.00;13.50;;;4.40;99.90;;;;;;5033129;28;20188;-93
2021/01/13 07:37:23;;;;;;;34.23;14.80;;;4.40;99.90;;;;;;5029749;28;20290;-93
2021/01/13 07:40:16;;;;;;;34.07;14.43;;;4.40;99.90;;;;;;5018055;28;20174;-93
2021/01/13 07:42:46;;;;;;;38.57;15.13;;;4.40;99.90;;;;;;5019226;28;20254;-94
2021/01/13 07:45:17;;;;;;;37.60;14.77;;;4.40;99.90;;;;;;5036824;28;20232;-93
2021/01/13 07:48:03;;;;;;;41.17;15.30;;;4.30;99.90;;;;;;5030430;28;20188;-93
2021/01/13 07:50:32;;;;;;;31.73;14.67;;;4.20;99.90;;;;;;5031264;28;20309;-94
2021/01/13 07:53:03;;;;;;;39.87;14.87;;;4.20;99.90;;;;;;5051155;28;20681;-94
2021/01/13 07:55:34;;;;;;;38.83;14.10;;;4.20;99.90;;;;;;5015736;28;20651;-93
2021/01/13 07:58:01;;;;;;;32.50;13.10;;;4.30;99.90;;;;;;5033254;28;20192;-94
2021/01/13 08:00:36;;;;;;;31.20;13.40;;;4.30;99.90;;;;;;5019258;28;20278;-93
2021/01/13 08:03:25;;;;;;;29.90;12.63;;;4.30;99.90;;;;;;5027095;28;20220;-94
2021/01/13 08:06:15;;;;;;;28.30;12.17;;;4.30;99.90;;;;;;5031807;28;20223;-93
2021/01/13 08:09:06;;;;;;;31.80;12.47;;;4.40;99.90;;;;;;5018042;28;20188;-93
2021/01/13 08:12:15;;;;;;;32.23;13.37;;;4.30;99.90;;;;;;5031595;28;20188;-93
2021/01/13 08:14:47;;;;;;;28.40;11.60;;;4.20;99.90;;;;;;5036195;28;20199;-93
2021/01/13 08:17:51;;;;;;;29.10;11.20;;;4.30;99.90;;;;;;5038490;28;20565;-94
2021/01/13 08:20:48;;;;;;;30.27;11.77;;;4.30;99.90;;;;;;5018615;28;20243;-93
2021/01/13 08:23:21;;;;;;;34.87;11.67;;;4.40;99.90;;;;;;5050149;28;20184;-94
2021/01/13 08:26:00;;;;;;;28.53;11.10;;;4.50;99.90;;;;;;5049373;28;20212;-93
2021/01/13 08:28:37;;;;;;;25.97;10.77;;;4.50;99.90;;;;;;5033016;28;20174;-93
2021/01/13 08:31:04;;;;;;;24.07;10.47;;;4.40;99.90;;;;;;5017065;28;20188;-94
2021/01/13 08:33:33;;;;;;;24.63;9.93;;;4.40;99.90;;;;;;5037501;28;20177;-93
2021/01/13 08:36:07;;;;;;;28.80;10.53;;;4.40;99.90;;;;;;5032378;28;20188;-93
2021/01/13 08:38:33;;;;;;;23.67;10.17;;;4.50;99.90;;;;;;5050923;28;20232;-93
2021/01/13 08:41:20;;;;;;;29.03;10.80;;;4.60;99.90;;;;;;5033479;28;20178;-93
2021/01/13 08:44:05;;;;;;;26.83;10.67;;;4.60;99.90;;;;;;5017193;28;20661;-93
2021/01/13 08:46:45;;;;;;;24.87;9.60;;;4.70;99.90;;;;;;5034933;28;20198;-93
2021/01/13 08:49:31;;;;;;;26.63;10.67;;;4.80;99.90;;;;;;5051638;28;20186;-94
2021/01/13 08:52:13;;;;;;;26.80;10.07;;;4.90;99.90;;;;;;5039400;28;20296;-93
2021/01/13 08:54:41;;;;;;;24.87;9.17;;;4.90;99.90;;;;;;5036538;28;21607;-93
2021/01/13 08:57:12;;;;;;;25.57;8.57;;;5.00;99.90;;;;;;5040640;28;20183;-93
2021/01/13 08:59:44;;;;;;;22.60;9.00;;;4.90;99.90;;;;;;5022905;28;20221;-93
2021/01/13 09:02:23;;;;;;;22.17;9.07;;;5.00;99.90;;;;;;5053080;28;20196;-93
2021/01/13 09:04:55;;;;;;;26.33;8.80;;;5.00;99.90;;;;;;5029225;28;20210;-92
2021/01/13 09:07:30;;;;;;;23.60;8.47;;;5.00;99.90;;;;;;5034193;28;20581;-92
2021/01/13 09:09:55;;;;;;;25.97;8.20;;;5.20;99.90;;;;;;5053503;28;20192;-92
2021/01/13 09:12:39;;;;;;;21.80;8.27;;;5.30;99.90;;;;;;5020101;28;20310;-91
2021/01/13 09:15:26;;;;;;;19.83;8.13;;;5.30;99.90;;;;;;5033970;28;20671;-92
2021/01/13 09:17:54;;;;;;;19.33;7.63;;;5.30;99.90;;;;;;5052055;28;20186;-92
2021/01/13 09:20:26;;;;;;;22.97;7.90;;;5.30;99.90;;;;;;5036146;28;20242;-92
2021/01/13 09:23:04;;;;;;;26.30;8.40;;;5.30;99.90;;;;;;5037727;28;20186;-92
2021/01/13 09:25:44;;;;;;;23.77;8.73;;;5.30;99.90;;;;;;5047919;28;20352;-92
2021/01/13 09:28:18;;;;;;;20.37;8.83;;;5.40;99.90;;;;;;5037125;28;20187;-92
2021/01/13 09:31:02;;;;;;;;;;;;;;;;;;;;;
2021/01/13 09:33:38;;;;;;;24.23;8.37;;;5.60;99.90;;;;;;5054650;28;20253;-92
2021/01/13 09:36:09;;;;;;;19.80;8.10;;;5.70;99.90;;;;;;5036465;28;20194;-92
2021/01/13 09:38:38;;;;;;;20.93;8.03;;;5.70;99.90;;;;;;5036207;28;20312;-93
2021/01/13 09:41:24;;;;;;;18.27;8.10;;;5.70;99.90;;;;;;5041188;28;20177;-93
2021/01/13 09:44:33;;;;;;;17.07;8.10;;;5.80;99.90;;;;;;5018855;28;20730;-90
2021/01/13 09:47:23;;;;;;;20.90;8.27;;;5.90;99.90;;;;;;4963034;28;20648;-91
2021/01/13 09:49:57;;;;;;;21.17;7.83;;;5.90;99.90;;;;;;5030901;28;20192;-92
2021/01/13 09:52:39;;;;;;;19.87;8.33;;;6.00;99.90;;;;;;5024324;28;20182;-92
2021/01/13 09:55:08;;;;;;;19.47;8.47;;;6.00;99.90;;;;;;5017631;28;20187;-92
2021/01/13 09:57:35;;;;;;;18.43;8.40;;;6.10;99.90;;;;;;5032225;28;20192;-91
2021/01/13 10:00:09;;;;;;;18.97;8.03;;;6.10;99.90;;;;;;5035598;28;20222;-92
2021/01/13 10:02:47;;;;;;;18.63;8.33;;;6.20;99.90;;;;;;5020535;28;20197;-92
2021/01/13 10:05:13;;;;;;;18.00;8.30;;;6.10;99.90;;;;;;5037676;28;20217;-93
2021/01/13 10:07:40;;;;;;;20.27;10.00;;;6.00;99.90;;;;;;5021239;28;20186;-92
2021/01/13 10:10:07;;;;;;;19.10;8.77;;;6.00;99.90;;;;;;5035482;28;20180;-94
2021/01/13 10:12:49;;;;;;;19.70;8.43;;;6.00;99.90;;;;;;5054364;28;20186;-91
2021/01/13 10:15:15;;;;;;;18.53;8.07;;;6.20;99.90;;;;;;5017137;28;20187;-93
2021/01/13 10:17:42;;;;;;;21.37;7.93;;;6.30;99.90;;;;;;5018930;28;20650;-92
2021/01/13 10:20:12;;;;;;;19.50;7.67;;;6.40;99.90;;;;;;5015059;28;20209;-92
2021/01/13 10:22:39;;;;;;;18.87;7.40;;;6.60;99.90;;;;;;5033379;28;20200;-92
2021/01/13 10:25:06;;;;;;;21.80;6.80;;;6.60;99.90;;;;;;5016734;28;20679;-92
2021/01/13 10:27:31;;;;;;;17.07;6.50;;;6.80;99.90;;;;;;5047388;28;20191;-93
2021/01/13 10:29:57;;;;;;;18.30;6.40;;;7.00;99.90;;;;;;5015781;28;20716;-92
2021/01/13 10:32:24;;;;;;;16.80;6.17;;;7.00;99.90;;;;;;5031964;28;20654;-92
2021/01/13 10:34:59;;;;;;;16.00;7.00;;;7.00;99.90;;;;;;5016066;28;20180;-92
2021/01/13 10:37:39;;;;;;;17.60;6.33;;;7.00;99.90;;;;;;5014267;28;20222;-92
2021/01/13 10:40:09;;;;;;;16.93;6.53;;;7.10;99.90;;;;;;5029377;28;20218;-92
2021/01/13 10:42:39;;;;;;;19.00;6.93;;;7.00;99.90;;;;;;5028186;28;20194;-92
2021/01/13 10:45:15;;;;;;;18.17;6.87;;;7.00;99.90;;;;;;5015508;28;20204;-93
2021/01/13 10:47:54;;;;;;;17.80;6.70;;;7.00;99.90;;;;;;5032209;28;20179;-93
2021/01/13 10:50:23;;;;;;;16.33;6.97;;;7.00;99.90;;;;;;5045073;28;20233;-92
2021/01/13 10:52:53;;;;;;;15.60;6.50;;;7.00;99.90;;;;;;5017451;28;20315;-92
2021/01/13 10:55:21;;;;;;;18.47;7.23;;;7.00;99.90;;;;;;5029034;28;20534;-92
2021/01/13 10:57:49;;;;;;;16.10;6.90;;;6.90;99.90;;;;;;5029149;28;20249;-92
2021/01/13 11:00:16;;;;;;;21.37;7.10;;;6.90;99.90;;;;;;5031057;28;20335;-93
2021/01/13 11:02:57;;;;;;;18.47;7.40;;;6.80;99.90;;;;;;5015402;28;20198;-92
2021/01/13 11:05:25;;;;;;;17.53;7.20;;;6.90;99.90;;;;;;5015667;28;20215;-92
2021/01/13 11:07:53;;;;;;;20.20;7.70;;;7.00;99.90;;;;;;5032845;28;20187;-92
2021/01/13 11:10:21;;;;;;;16.13;7.33;;;7.10;99.90;;;;;;5014442;28;20604;-92
2021/01/13 11:13:01;;;;;;;16.00;7.70;;;7.10;99.90;;;;;;5012454;28;20334;-91
2021/01/13 11:15:26;;;;;;;21.90;7.90;;;7.10;99.90;;;;;;5016576;28;20183;-92
2021/01/13 11:17:56;;;;;;;21.00;8.50;;;7.30;99.90;;;;;;5031760;28;20190;-91
2021/01/13 11:20:27;;;;;;;18.03;8.03;;;7.30;99.90;;;;;;5034041;28;20212;-92
2021/01/13 11:23:02;;;;;;;18.73;8.37;;;7.50;99.90;;;;;;5013841;28;20280;-92
2021/01/13 11:25:37;;;;;;;20.13;8.37;;;7.60;99.90;;;;;;5014835;28;20213;-92
2021/01/13 11:28:08;;;;;;;19.17;8.13;;;7.80;99.90;;;;;;5024999;28;20195;-92
2021/01/13 11:30:37;;;;;;;21.70;8.20;;;7.90;99.90;;;;;;5047033;28;20195;-92
2021/01/13 11:33:04;;;;;;;19.50;9.00;;;7.90;99.90;;;;;;5018176;28;20173;-92
2021/01/13 11:35:34;;;;;;;15.77;7.10;;;7.90;99.90;;;;;;5022449;28;20192;-92
2021/01/13 11:38:38;;;;;;;17.53;7.67;;;7.70;99.90;;;;;;5029615;28;20238;-92
2021/01/13 11:41:23;;;;;;;15.83;7.03;;;7.70;99.90;;;;;;5028707;28;20212;-92
2021/01/13 11:44:00;;;;;;;14.77;6.37;;;7.90;99.90;;;;;;5032231;28;20197;-92
2021/01/13 11:46:34;;;;;;;16.27;6.83;;;8.00;99.90;;;;;;5050168;28;20227;-92
2021/01/13 11:49:15;;;;;;;16.77;6.60;;;8.10;99.90;;;;;;5046826;28;20198;-92
2021/01/13 11:51:46;;;;;;;14.10;6.67;;;8.00;99.90;;;;;;5018737;28;20680;-93
2021/01/13 11:54:30;;;;;;;18.33;7.63;;;8.10;99.90;;;;;;5015199;28;20689;-92
2021/01/13 11:57:27;;;;;;;18.73;8.00;;;8.10;99.90;;;;;;5031602;28;20184;-93
2021/01/13 11:59:55;;;;;;;15.63;7.40;;;8.10;99.90;;;;;;5029684;28;20654;-91
2021/01/13 12:02:24;;;;;;;18.40;6.90;;;8.30;99.90;;;;;;5045766;28;20188;-91
2021/01/13 12:04:51;;;;;;;15.50;6.40;;;8.20;99.90;;;;;;5031403;28;20215;-92
2021/01/13 12:07:19;;;;;;;15.77;6.53;;;8.20;99.90;;;;;;5013005;28;20184;-92
2021/01/13 12:09:45;;;;;;;15.83;7.37;;;8.10;99.90;;;;;;5016343;28;20180;-91
2021/01/13 12:12:26;;;;;;;17.00;7.37;;;8.10;99.90;;;;;;5031198;28;20227;-92
2021/01/13 12:14:53;;;;;;;17.50;6.87;;;8.10;99.90;;;;;;5029923;28;20177;-93
2021/01/13 12:17:25;;;;;;;16.37;7.60;;;8.00;99.90;;;;;;5029504;28;20546;-92
2021/01/13 12:19:54;;;;;;;19.90;7.43;;;8.00;99.90;;;;;;5045865;28;20259;-91
2021/01/13 12:22:35;;;;;;;19.27;8.40;;;7.60;99.90;;;;;;5035287;28;20187;-91
2021/01/13 12:25:02;;;;;;;19.77;8.53;;;7.70;99.90;;;;;;5012177;28;20209;-92
2021/01/13 12:27:28;;;;;;;17.60;8.77;;;7.80;99.90;;;;;;5016197;28;20670;-91
2021/01/13 12:30:14;;;;;;;19.57;8.90;;;7.90;99.90;;;;;;5013515;28;20180;-92
2021/01/13 12:32:41;;;;;;;17.43;9.03;;;8.00;99.90;;;;;;5012602;28;20659;-92
2021/01/13 12:35:10;;;;;;;18.50;8.60;;;8.00;99.90;;;;;;5015073;28;20185;-93
2021/01/13 12:37:48;;;;;;;21.13;8.97;;;8.10;99.90;;;;;;5045062;28;20730;-92
2021/01/13 12:40:14;;;;;;;16.13;8.97;;;8.10;99.90;;;;;;5029369;28;20181;-92
2021/01/13 12:42:40;;;;;;;21.57;9.43;;;8.20;99.90;;;;;;5029333;28;20177;-92
2021/01/13 12:45:06;;;;;;;20.97;9.90;;;8.20;99.90;;;;;;5035000;28;20215;-92
2021/01/13 12:47:32;;;;;;;20.63;10.27;;;8.20;99.90;;;;;;5039512;28;20186;-92
2021/01/13 12:49:58;;;;;;;24.37;11.47;;;8.00;99.90;;;;;;5051625;28;20203;-92
2021/01/13 12:52:24;;;;;;;22.20;11.20;;;7.90;99.90;;;;;;5019626;28;20211;-92
2021/01/13 12:54:50;;;;;;;19.97;10.33;;;7.90;99.90;;;;;;5027095;28;20220;-93
2021/01/13 12:57:16;;;;;;;24.20;12.03;;;7.90;99.90;;;;;;5011695;28;20216;-91
2021/01/13 12:59:41;;;;;;;30.93;15.53;;;8.00;99.90;;;;;;5022719;28;20197;-92
2021/01/13 13:02:08;;;;;;;46.47;20.73;;;8.10;99.90;;;;;;5013049;28;20278;-92
2021/01/13 13:04:34;;;;;;;30.87;15.10;;;8.20;99.90;;;;;;5047247;28;20257;-93
2021/01/13 13:06:59;;;;;;;36.47;15.90;;;8.20;99.90;;;;;;5028053;28;20183;-92
2021/01/13 13:09:25;;;;;;;78.57;30.63;;;8.20;99.90;;;;;;5028505;28;20545;-92
2021/01/13 13:11:51;;;;;;;95.83;31.70;;;8.20;99.90;;;;;;5014774;28;20164;-91
2021/01/13 13:14:17;;;;;;;46.93;18.57;;;8.20;99.90;;;;;;5013096;28;20677;-92